Time;durP1;ratioP1;P1;durP2;ratioP2;P2;SDS_P1;SDS_P2;PMS_P1;PMS_P2;Temp;Humidity;BMP_temperature;BMP_pressure;BME280_temperature;BME280_humidity;BME280_pressure;Samples;Min_cycle;Max_cycle;Signal;HPM_P1;HPM_P2
2021/05/12 00:02:20;;;;;;;5.43;2.10;;;461.30;1561.60;;;;;;5035123;28;20556;-72
2021/05/12 00:04:46;;;;;;;7.60;2.20;;;461.20;1587.20;;;;;;5035684;28;20021;-66
2021/05/12 00:07:12;;;;;;;4.20;2.10;;;461.10;1587.20;;;;;;5035078;28;20480;-67
2021/05/12 00:09:38;;;;;;;4.30;2.10;;;461.00;1612.80;;;;;;5035109;28;20025;-67
2021/05/12 00:12:05;;;;;;;5.07;2.70;;;460.90;1612.80;;;;;;5035102;28;20034;-69
2021/05/12 00:14:31;;;;;;;4.80;2.55;;;460.80;1638.40;;;;;;5034966;28;20033;-69
2021/05/12 00:17:00;;;;;;;6.40;2.88;;;436.10;1612.80;;;;;;5035142;28;20029;-68
2021/05/12 00:19:26;;;;;;;3.20;2.10;;;436.00;1638.40;;;;;;5035218;28;20057;-69
2021/05/12 00:22:00;;;;;;;4.47;2.33;;;435.90;1638.40;;;;;;5034986;28;20552;-69
2021/05/12 00:24:25;;;;;;;4.30;2.60;;;435.90;1638.40;;;;;;5035007;28;20048;-67
2021/05/12 00:26:51;;;;;;;4.88;2.28;;;435.80;1664.00;;;;;;5034862;28;20442;-68
2021/05/12 00:29:17;;;;;;;3.45;1.90;;;435.70;1664.00;;;;;;5034971;28;20022;-73
2021/05/12 00:31:44;;;;;;;3.75;1.88;;;435.60;1664.00;;;;;;5033327;28;20044;-72
2021/05/12 00:34:10;;;;;;;4.25;2.08;;;435.50;1664.00;;;;;;5033532;28;20036;-71
2021/05/12 00:36:36;;;;;;;3.97;2.10;;;435.50;1689.60;;;;;;5034833;28;20131;-74
2021/05/12 00:39:06;;;;;;;3.45;2.08;;;435.40;1689.60;;;;;;5034644;28;20010;-73
2021/05/12 00:41:34;;;;;;;3.70;2.13;;;435.40;1715.20;;;;;;5034626;28;20042;-69
2021/05/12 00:44:00;;;;;;;5.40;2.17;;;435.30;1715.20;;;;;;5034524;28;20032;-68
2021/05/12 00:46:26;;;;;;;4.65;2.20;;;435.30;1715.20;;;;;;5034697;28;20025;-69
2021/05/12 00:48:51;;;;;;;4.28;2.13;;;410.50;1715.20;;;;;;5034264;28;20029;-67
2021/05/12 00:51:17;;;;;;;4.32;2.20;;;410.50;1715.20;;;;;;5034550;28;20128;-68
2021/05/12 00:53:43;;;;;;;4.95;2.10;;;410.40;1740.80;;;;;;5034447;28;20033;-67
2021/05/12 00:56:12;;;;;;;5.15;2.05;;;410.30;1740.80;;;;;;5034193;28;20100;-69
2021/05/12 00:58:38;;;;;;;6.78;2.40;;;410.30;1740.80;;;;;;5034752;28;20048;-68
2021/05/12 01:01:04;;;;;;;6.25;2.20;;;410.30;1740.80;;;;;;5034217;28;20052;-68
2021/05/12 01:03:30;;;;;;;6.40;2.20;;;410.20;1740.80;;;;;;5034281;28;20463;-68
2021/05/12 01:05:56;;;;;;;4.38;2.30;;;410.30;1740.80;;;;;;5034100;28;20039;-72
2021/05/12 01:08:21;;;;;;;4.03;2.20;;;410.20;1766.40;;;;;;5034259;28;20025;-72
2021/05/12 01:10:47;;;;;;;4.70;2.10;;;410.20;1740.80;;;;;;5034004;28;20104;-65
2021/05/12 01:13:13;;;;;;;4.93;2.20;;;410.20;1740.80;;;;;;5034007;28;20105;-67
2021/05/12 01:15:41;;;;;;;4.57;2.55;;;410.20;1740.80;;;;;;5034397;28;20107;-67
2021/05/12 01:18:27;;;;;;;9.93;6.60;;;410.10;1766.40;;;;;;5033770;28;20025;-67
2021/05/12 01:20:58;;;;;;;4.25;2.15;;;410.00;1792.00;;;;;;5033745;28;20037;-68
2021/05/12 01:23:26;;;;;;;5.00;2.00;;;410.00;1792.00;;;;;;5033751;28;20383;-68
2021/05/12 01:25:53;;;;;;;5.18;2.13;;;410.00;1792.00;;;;;;5033834;28;20383;-69
2021/05/12 01:28:25;;;;;;;5.25;2.85;;;409.90;1817.60;;;;;;5033954;28;20033;-68
2021/05/12 01:30:57;;;;;;;6.22;2.88;;;409.90;1817.60;;;;;;5032463;28;20075;-67
2021/05/12 01:33:24;;;;;;;6.25;2.90;;;409.80;1817.60;;;;;;5033713;28;20029;-67
2021/05/12 01:35:49;;;;;;;4.25;2.50;;;409.70;1843.20;;;;;;5033121;28;20029;-68
2021/05/12 01:38:16;;;;;;;6.70;2.75;;;409.80;1843.20;;;;;;5033730;28;20021;-68
2021/05/12 01:40:41;;;;;;;4.50;2.50;;;409.70;1843.20;;;;;;5033382;28;20042;-68
2021/05/12 01:43:07;;;;;;;5.43;2.50;;;409.70;1843.20;;;;;;5033464;28;20080;-67
2021/05/12 01:45:33;;;;;;;5.18;2.67;;;409.70;1868.80;;;;;;5033535;28;20083;-68
2021/05/12 01:48:00;;;;;;;5.03;2.80;;;409.70;1868.80;;;;;;5033408;28;20022;-67
2021/05/12 01:50:25;;;;;;;7.15;2.70;;;409.60;1868.80;;;;;;5031946;28;20033;-77
2021/05/12 01:52:51;;;;;;;5.45;2.58;;;409.60;1868.80;;;;;;5036495;28;20028;-79
2021/05/12 01:55:17;;;;;;;6.43;2.60;;;409.70;1868.80;;;;;;5042370;28;20025;-78
2021/05/12 01:57:44;;;;;;;4.15;2.40;;;409.60;1868.80;;;;;;5051713;28;20017;-76
2021/05/12 02:00:43;;;;;;;4.82;2.40;;;409.70;1894.40;;;;;;5052977;28;20021;-71
2021/05/12 02:03:10;;;;;;;5.03;2.13;;;409.60;1894.40;;;;;;5052956;28;20024;-72
2021/05/12 02:05:38;;;;;;;4.63;2.40;;;409.60;1894.40;;;;;;5052717;28;20029;-68
2021/05/12 02:08:07;;;;;;;3.95;2.30;;;409.60;1894.40;;;;;;5052963;28;20029;-68
2021/05/12 02:10:33;;;;;;;4.03;2.10;;;409.60;1894.40;;;;;;5052851;28;20025;-69
2021/05/12 02:12:59;;;;;;;4.50;2.28;;;409.60;1894.40;;;;;;5052781;28;20060;-73
2021/05/12 02:15:25;;;;;;;4.72;2.50;;;384.90;1894.40;;;;;;5052926;28;20032;-72
2021/05/12 02:17:52;;;;;;;7.28;3.30;;;409.60;1920.00;;;;;;5052579;28;20326;-72
2021/05/12 02:20:29;;;;;;;5.30;3.58;;;384.90;1894.40;;;;;;5053024;28;20025;-72
2021/05/12 02:22:56;;;;;;;6.93;3.70;;;409.60;1920.00;;;;;;5041459;28;20479;-72
2021/05/12 02:25:22;;;;;;;6.15;3.30;;;409.60;1945.60;;;;;;5052780;28;20107;-67
2021/05/12 02:27:48;;;;;;;7.38;3.30;;;384.90;1920.00;;;;;;5052450;28;20108;-66
2021/05/12 02:30:14;;;;;;;6.95;3.63;;;384.90;1945.60;;;;;;5052667;28;20040;-69
2021/05/12 02:32:40;;;;;;;6.53;3.85;;;409.60;1971.20;;;;;;5052394;28;20033;-67
2021/05/12 02:35:08;;;;;;;9.60;4.25;;;384.90;1945.60;;;;;;5038720;28;20076;-69
2021/05/12 02:37:34;;;;;;;6.88;5.00;;;384.90;1945.60;;;;;;5037996;28;20109;-68
2021/05/12 02:40:00;;;;;;;8.30;5.35;;;384.90;1945.60;;;;;;5052143;28;20071;-68
2021/05/12 02:42:26;;;;;;;15.50;10.25;;;384.80;1971.20;;;;;;5052630;28;20037;-73
2021/05/12 02:44:52;;;;;;;14.15;11.05;;;384.80;1945.60;;;;;;5052207;28;20538;-72
2021/05/12 02:47:18;;;;;;;13.75;10.65;;;384.80;1945.60;;;;;;5051676;28;20025;-69
2021/05/12 02:49:43;;;;;;;13.40;10.23;;;384.70;1971.20;;;;;;5052097;28;20586;-69
2021/05/12 02:52:09;;;;;;;15.48;10.63;;;384.80;1996.80;;;;;;5052486;28;20491;-68
2021/05/12 02:54:35;;;;;;;18.17;14.45;;;384.70;1996.80;;;;;;5052149;28;20483;-73
2021/05/12 02:57:03;;;;;;;22.65;16.25;;;384.50;2022.40;;;;;;5051784;28;20051;-71
2021/05/12 02:59:29;;;;;;;20.23;14.48;;;384.60;1996.80;;;;;;5051059;28;20391;-67
2021/05/12 03:01:55;;;;;;;25.50;18.75;;;384.50;2048.00;;;;;;5052249;28;20116;-67
2021/05/12 03:04:21;;;;;;;25.42;18.00;;;384.50;2022.40;;;;;;5052105;28;20037;-69
2021/05/12 03:06:47;;;;;;;27.38;17.15;;;384.40;2022.40;;;;;;5051886;28;20474;-68
2021/05/12 03:09:13;;;;;;;20.73;15.65;;;384.40;2048.00;;;;;;5052245;28;20070;-68
2021/05/12 03:11:39;;;;;;;21.45;15.07;;;384.30;2073.60;;;;;;5052036;28;20130;-68
2021/05/12 03:14:06;;;;;;;16.42;11.73;;;384.30;2073.60;;;;;;5051793;28;20486;-69
2021/05/12 03:16:32;;;;;;;16.13;11.55;;;384.30;2073.60;;;;;;5052091;28;20029;-69
2021/05/12 03:18:58;;;;;;;17.67;12.10;;;384.30;2073.60;;;;;;5052102;28;20021;-68
2021/05/12 03:21:24;;;;;;;18.77;12.48;;;384.30;2099.20;;;;;;5050726;28;20442;-68
2021/05/12 03:23:50;;;;;;;18.52;11.77;;;384.00;2124.80;;;;;;5051988;28;20082;-68
2021/05/12 03:26:17;;;;;;;20.90;12.90;;;384.00;2124.80;;;;;;5052049;28;20017;-72
2021/05/12 03:28:44;;;;;;;20.13;12.20;;;359.30;2176.00;;;;;;5051818;28;20368;-72
2021/05/12 03:31:11;;;;;;;21.27;13.10;;;359.30;2176.00;;;;;;5051688;28;20491;-70
2021/05/12 03:33:37;;;;;;;20.15;12.25;;;359.10;2201.60;;;;;;5051788;28;20064;-67
2021/05/12 03:36:04;;;;;;;17.35;11.52;;;359.10;2201.60;;;;;;5051743;28;20110;-68
2021/05/12 03:38:30;;;;;;;15.95;10.27;;;359.10;2201.60;;;;;;5050637;28;20455;-68
2021/05/12 03:40:56;;;;;;;14.93;9.52;;;359.10;2201.60;;;;;;5051557;28;20076;-68
2021/05/12 03:43:22;;;;;;;13.13;8.75;;;359.10;2201.60;;;;;;5051738;28;20028;-68
2021/05/12 03:45:47;;;;;;;13.23;7.75;;;359.20;2201.60;;;;;;5051794;28;20029;-68
2021/05/12 03:48:13;;;;;;;11.07;5.18;;;359.20;2176.00;;;;;;5051940;28;20032;-68
2021/05/12 03:50:39;;;;;;;13.05;5.70;;;359.20;2227.20;;;;;;5051678;28;20476;-66
2021/05/12 03:53:05;;;;;;;9.57;4.30;;;359.00;2278.40;;;;;;5051521;28;20028;-68
2021/05/12 03:55:32;;;;;;;15.38;5.13;;;359.00;2252.80;;;;;;5051704;28;20433;-69
2021/05/12 03:57:57;;;;;;;11.10;4.70;;;359.00;2252.80;;;;;;5051620;28;20104;-68
2021/05/12 04:00:23;;;;;;;11.25;4.07;;;359.10;2252.80;;;;;;5053463;28;20108;-69
2021/05/12 04:02:49;;;;;;;15.38;4.50;;;359.20;2278.40;;;;;;5055919;28;20103;-73
2021/05/12 04:05:16;;;;;;;9.85;4.32;;;359.30;2278.40;;;;;;5055205;28;20495;-74
2021/05/12 04:07:42;;;;;;;12.60;4.20;;;359.30;2252.80;;;;;;5055220;28;20033;-74
2021/05/12 04:10:09;;;;;;;11.40;4.35;;;384.00;2278.40;;;;;;5055122;28;20171;-73
2021/05/12 04:12:35;;;;;;;11.82;5.80;;;384.00;2252.80;;;;;;5055183;28;20029;-73
2021/05/12 04:15:01;;;;;;;10.48;5.97;;;384.00;2252.80;;;;;;5055144;28;20029;-73
2021/05/12 04:17:27;;;;;;;11.30;4.80;;;384.10;2252.80;;;;;;5055029;28;20017;-73
2021/05/12 04:19:54;;;;;;;10.65;4.47;;;384.20;2227.20;;;;;;5055307;28;20362;-67
2021/05/12 04:22:20;;;;;;;7.60;3.80;;;384.30;2227.20;;;;;;5054797;28;20029;-68
2021/05/12 04:24:46;;;;;;;7.93;3.75;;;384.40;2227.20;;;;;;5055016;28;20036;-68
2021/05/12 04:27:12;;;;;;;8.63;3.38;;;384.40;2201.60;;;;;;5054192;28;20495;-68
2021/05/12 04:29:38;;;;;;;6.40;3.40;;;384.50;2201.60;;;;;;5041619;28;20031;-67
2021/05/12 04:32:05;;;;;;;9.13;3.40;;;384.70;2201.60;;;;;;5041897;28;20108;-69
2021/05/12 04:34:31;;;;;;;10.55;3.63;;;384.90;2150.40;;;;;;5053726;28;20032;-67
2021/05/12 04:36:57;;;;;;;7.13;2.95;;;409.80;2176.00;;;;;;5054756;28;20025;-72
2021/05/12 04:39:23;;;;;;;7.15;3.40;;;410.00;2150.40;;;;;;5053555;28;20024;-68
2021/05/12 04:41:49;;;;;;;9.57;3.13;;;410.20;2124.80;;;;;;5054430;28;20045;-68
2021/05/12 04:44:15;;;;;;;7.35;2.88;;;410.30;2099.20;;;;;;5054541;28;20085;-68
2021/05/12 04:46:44;;;;;;;7.18;2.88;;;410.50;2073.60;;;;;;5054433;28;20028;-67
2021/05/12 04:49:10;;;;;;;5.93;2.67;;;435.20;2073.60;;;;;;5054588;28;20025;-67
2021/05/12 04:51:37;;;;;;;7.88;3.25;;;435.30;2073.60;;;;;;5054253;28;20497;-68
2021/05/12 04:54:04;;;;;;;8.57;2.72;;;435.50;2099.20;;;;;;5054531;28;20025;-68
2021/05/12 04:56:29;;;;;;;8.30;2.80;;;435.70;2048.00;;;;;;5036878;28;20101;-67
2021/05/12 04:58:55;;;;;;;7.95;3.22;;;435.90;2073.60;;;;;;5054382;28;20033;-67
2021/05/12 05:01:21;;;;;;;7.55;3.08;;;436.00;1945.60;;;;;;5054556;28;20024;-68
2021/05/12 05:03:48;;;;;;;5.70;2.65;;;436.10;1971.20;;;;;;5054243;28;20017;-68
2021/05/12 05:06:14;;;;;;;5.65;2.50;;;460.90;1945.60;;;;;;5054105;28;20431;-66
2021/05/12 05:08:40;;;;;;;4.60;2.33;;;461.20;1920.00;;;;;;5053957;28;20041;-65
2021/05/12 05:11:06;;;;;;;6.15;2.47;;;461.20;1894.40;;;;;;5053570;28;20036;-66
2021/05/12 05:13:32;;;;;;;4.47;2.25;;;461.40;1843.20;;;;;;5042406;28;20036;-70
2021/05/12 05:15:58;;;;;;;5.85;2.28;;;461.50;1817.60;;;;;;5033987;28;20024;-74
2021/05/12 05:18:24;;;;;;;5.53;2.42;;;486.60;1817.60;;;;;;5033745;28;20079;-73
2021/05/12 05:20:54;;;;;;;5.63;2.33;;;487.00;1766.40;;;;;;5034023;28;20030;-70
2021/05/12 05:23:20;;;;;;;5.13;2.60;;;487.30;1740.80;;;;;;5033823;28;20040;-70
2021/05/12 05:25:45;;;;;;;5.13;2.38;;;512.30;1715.20;;;;;;5033841;28;20100;-73
2021/05/12 05:28:11;;;;;;;4.80;2.38;;;537.60;1689.60;;;;;;5033834;28;20029;-72
2021/05/12 05:30:37;;;;;;;4.00;2.50;;;538.30;1612.80;;;;;;5033229;28;20419;-68
2021/05/12 05:33:03;;;;;;;4.82;2.40;;;563.60;1587.20;;;;;;5033878;28;20030;-67
2021/05/12 05:35:28;;;;;;;3.83;2.42;;;564.10;1510.40;;;;;;5033488;28;20491;-67
2021/05/12 05:37:54;;;;;;;4.10;2.60;;;563.80;1510.40;;;;;;5033437;28;20091;-68
2021/05/12 05:40:20;;;;;;;5.60;2.70;;;564.00;1510.40;;;;;;5033216;28;20404;-66
2021/05/12 05:42:46;;;;;;;5.72;2.60;;;589.20;1484.80;;;;;;5033282;28;20033;-69
2021/05/12 05:45:12;;;;;;;5.90;2.70;;;589.30;1433.60;;;;;;5033524;28;20022;-67
2021/05/12 05:47:37;;;;;;;9.27;3.88;;;589.70;1433.60;;;;;;5033062;28;20021;-67
2021/05/12 05:50:04;;;;;;;7.05;3.47;;;614.80;1382.40;;;;;;5033382;28;20436;-66
2021/05/12 05:52:30;;;;;;;5.10;2.30;;;640.50;1356.80;;;;;;5033304;28;20021;-67
2021/05/12 05:54:56;;;;;;;4.28;2.30;;;640.80;1280.00;;;;;;5032720;28;20116;-67
2021/05/12 05:57:22;;;;;;;5.28;2.25;;;666.10;1280.00;;;;;;5044189;28;20481;-66
2021/05/12 05:59:48;;;;;;;7.38;2.65;;;666.00;1254.40;;;;;;5053191;28;20020;-68
2021/05/12 06:02:13;;;;;;;5.97;2.50;;;666.50;1228.80;;;;;;5052953;28;20017;-72
2021/05/12 06:04:39;;;;;;;4.45;2.38;;;666.50;1228.80;;;;;;5053044;28;20035;-67
2021/05/12 06:07:05;;;;;;;4.68;2.58;;;665.70;1254.40;;;;;;5052993;28;20021;-67
2021/05/12 06:09:31;;;;;;;3.70;2.45;;;640.50;1254.40;;;;;;5053186;28;20025;-66
2021/05/12 06:11:57;;;;;;;4.47;2.38;;;615.30;1280.00;;;;;;5052814;28;20020;-68
2021/05/12 06:14:23;;;;;;;5.03;2.35;;;614.80;1305.60;;;;;;5052801;28;20031;-66
2021/05/12 06:16:50;;;;;;;5.57;2.33;;;614.60;1331.20;;;;;;5053363;28;20056;-66
2021/05/12 06:19:16;;;;;;;5.50;2.92;;;614.80;1356.80;;;;;;5052966;28;20074;-66
2021/05/12 06:21:42;;;;;;;6.50;2.92;;;614.50;1331.20;;;;;;5053202;28;20104;-66
2021/05/12 06:24:08;;;;;;;6.60;3.03;;;589.70;1356.80;;;;;;5052751;28;20515;-66
2021/05/12 06:26:37;;;;;;;4.55;2.70;;;589.40;1356.80;;;;;;5042860;28;20026;-67
2021/05/12 06:29:03;;;;;;;6.55;3.00;;;588.90;1356.80;;;;;;5048924;28;20028;-68
2021/05/12 06:31:29;;;;;;;4.93;2.72;;;564.10;1382.40;;;;;;5052399;28;20029;-69
2021/05/12 06:33:55;;;;;;;6.60;2.70;;;564.10;1382.40;;;;;;5052560;28;20033;-66
2021/05/12 06:36:21;;;;;;;15.50;4.93;;;588.80;1382.40;;;;;;5052743;28;20024;-70
2021/05/12 06:38:47;;;;;;;10.43;4.20;;;564.10;1433.60;;;;;;5052570;28;20024;-67
2021/05/12 06:41:13;;;;;;;7.10;3.90;;;588.90;1408.00;;;;;;5052127;28;20537;-67
2021/05/12 06:43:39;;;;;;;6.45;3.40;;;589.00;1408.00;;;;;;5052415;28;20021;-68
2021/05/12 06:46:05;;;;;;;7.13;3.20;;;589.00;1408.00;;;;;;5052297;28;20479;-67
2021/05/12 06:48:31;;;;;;;7.43;3.10;;;589.30;1408.00;;;;;;5052267;28;20025;-66
2021/05/12 06:50:57;;;;;;;5.85;2.80;;;589.50;1382.40;;;;;;5052564;28;20198;-68
2021/05/12 06:53:31;;;;;;;7.55;2.97;;;589.50;1382.40;;;;;;5052033;28;20488;-68
2021/05/12 06:55:57;;;;;;;4.70;2.80;;;589.70;1356.80;;;;;;5052548;28;20033;-68
2021/05/12 06:58:23;;;;;;;5.20;2.80;;;589.70;1331.20;;;;;;5048088;28;20029;-68
2021/05/12 07:00:51;;;;;;;5.35;2.50;;;614.40;1331.20;;;;;;5052541;28;20512;-67
2021/05/12 07:03:22;;;;;;;7.30;3.00;;;589.70;1331.20;;;;;;5052386;28;20388;-72
2021/05/12 07:05:49;;;;;;;6.15;2.75;;;589.70;1356.80;;;;;;5025857;28;20067;-73
2021/05/12 07:08:15;;;;;;;7.10;2.70;;;614.70;1331.20;;;;;;5052099;28;20028;-72
2021/05/12 07:10:41;;;;;;;6.75;4.20;;;615.20;1305.60;;;;;;5051983;28;20021;-67
2021/05/12 07:13:08;;;;;;;6.47;3.22;;;640.20;1305.60;;;;;;5052014;28;20029;-68
2021/05/12 07:15:33;;;;;;;5.28;2.65;;;640.60;1280.00;;;;;;5052181;28;20017;-67
2021/05/12 07:17:59;;;;;;;9.05;3.30;;;666.00;1280.00;;;;;;5051984;28;20529;-66
2021/05/12 07:20:25;;;;;;;6.93;3.13;;;666.20;1280.00;;;;;;5051842;28;20086;-67
2021/05/12 07:22:51;;;;;;;4.95;2.88;;;691.60;1228.80;;;;;;5052077;28;20029;-66
2021/05/12 07:25:17;;;;;;;8.48;3.15;;;716.80;1177.60;;;;;;5052011;28;20407;-68
2021/05/12 07:27:43;;;;;;;6.00;2.92;;;717.30;1177.60;;;;;;5052067;28;20118;-66
2021/05/12 07:30:09;;;;;;;9.00;2.88;;;742.50;1177.60;;;;;;5051879;28;20507;-66
2021/05/12 07:32:35;;;;;;;8.50;3.40;;;742.60;1177.60;;;;;;5051997;28;20111;-70
2021/05/12 07:35:01;;;;;;;7.68;3.80;;;717.70;1152.00;;;;;;5054493;28;20483;-67
2021/05/12 07:37:27;;;;;;;8.32;3.90;;;716.90;1152.00;;;;;;5055994;28;20076;-67
2021/05/12 07:39:53;;;;;;;8.25;4.60;;;691.90;1152.00;;;;;;5056055;28;20483;-65
2021/05/12 07:42:20;;;;;;;11.38;3.17;;;691.80;1152.00;;;;;;5055714;28;20032;-67
2021/05/12 07:44:48;;;;;;;7.40;2.90;;;691.30;1177.60;;;;;;5055665;28;20025;-67
2021/05/12 07:47:15;;;;;;;6.22;3.50;;;666.40;1203.20;;;;;;5055723;28;20471;-67
2021/05/12 07:49:43;;;;;;;9.13;4.80;;;691.40;1177.60;;;;;;5055809;28;20451;-67
2021/05/12 07:52:15;;;;;;;8.48;4.68;;;691.30;1177.60;;;;;;5055621;28;20025;-65
2021/05/12 07:54:42;;;;;;;17.85;8.35;;;691.30;1203.20;;;;;;5055635;28;20021;-67
2021/05/12 07:57:08;;;;;;;6.28;3.50;;;691.40;1203.20;;;;;;5055593;28;20074;-66
2021/05/12 07:59:34;;;;;;;5.32;2.90;;;666.40;1203.20;;;;;;5055503;28;20021;-67
2021/05/12 08:02:02;;;;;;;4.78;2.85;;;666.10;1228.80;;;;;;5055325;28;20028;-67
2021/05/12 08:04:28;;;;;;;7.43;3.40;;;665.70;1254.40;;;;;;5055598;28;20032;-67
2021/05/12 08:06:54;;;;;;;7.80;3.80;;;640.70;1254.40;;;;;;5055183;28;20495;-67
2021/05/12 08:09:20;;;;;;;5.90;3.03;;;640.20;1254.40;;;;;;5055287;28;20025;-66
2021/05/12 08:11:46;;;;;;;5.22;3.10;;;615.20;1280.00;;;;;;5055175;28;20033;-66
2021/05/12 08:14:12;;;;;;;6.18;3.20;;;615.00;1305.60;;;;;;5054955;28;20028;-66
2021/05/12 08:16:37;;;;;;;5.28;2.65;;;614.70;1305.60;;;;;;5055494;28;20025;-66
2021/05/12 08:19:03;;;;;;;7.35;4.35;;;614.80;1305.60;;;;;;5054893;28;20013;-66
2021/05/12 08:21:29;;;;;;;6.70;3.58;;;615.00;1331.20;;;;;;5055340;28;20025;-67
2021/05/12 08:23:55;;;;;;;6.78;4.13;;;614.80;1305.60;;;;;;5054891;28;20056;-67
2021/05/12 08:26:21;;;;;;;6.13;3.05;;;615.00;1305.60;;;;;;5054933;28;20032;-68
2021/05/12 08:28:46;;;;;;;7.88;4.43;;;615.10;1305.60;;;;;;5054850;28;20040;-72
2021/05/12 08:31:14;;;;;;;5.45;3.70;;;615.20;1305.60;;;;;;5054565;28;20013;-72
2021/05/12 08:33:42;;;;;;;7.57;3.97;;;615.30;1305.60;;;;;;5054814;28;20032;-71
2021/05/12 08:36:08;;;;;;;11.32;5.43;;;615.20;1305.60;;;;;;5054485;28;20468;-71
2021/05/12 08:38:35;;;;;;;9.40;4.43;;;615.20;1331.20;;;;;;5053666;28;20360;-70
2021/05/12 08:41:03;;;;;;;10.07;4.15;;;615.20;1305.60;;;;;;5053286;28;20060;-70
2021/05/12 08:43:30;;;;;;;6.80;3.55;;;615.20;1305.60;;;;;;5054559;28;20032;-66
2021/05/12 08:45:56;;;;;;;6.30;3.40;;;640.10;1280.00;;;;;;5053171;28;20380;-67
2021/05/12 08:48:23;;;;;;;6.88;3.00;;;640.40;1280.00;;;;;;5054525;28;20055;-66
2021/05/12 08:50:50;;;;;;;6.90;3.58;;;640.90;1280.00;;;;;;5054440;28;20033;-67
2021/05/12 08:53:17;;;;;;;5.60;3.13;;;640.90;1254.40;;;;;;5054177;28;20021;-66
2021/05/12 08:55:43;;;;;;;4.30;2.50;;;665.60;1280.00;;;;;;5054493;28;20025;-71
2021/05/12 08:58:08;;;;;;;6.82;2.78;;;640.70;1254.40;;;;;;5054101;28;20541;-67
2021/05/12 09:00:34;;;;;;;7.30;2.78;;;640.90;1254.40;;;;;;5054352;28;20013;-67
2021/05/12 09:03:02;;;;;;;5.15;2.78;;;640.80;1254.40;;;;;;5054594;28;20032;-66
2021/05/12 09:05:29;;;;;;;5.22;2.80;;;640.60;1280.00;;;;;;5054101;28;20060;-68
2021/05/12 09:07:55;;;;;;;6.03;2.80;;;640.60;1280.00;;;;;;5054217;28;20049;-67
2021/05/12 09:10:22;;;;;;;4.13;2.45;;;640.90;1280.00;;;;;;5053937;28;20037;-66
2021/05/12 09:12:54;;;;;;;7.03;2.90;;;665.60;1305.60;;;;;;5054138;28;20100;-66
2021/05/12 09:15:22;;;;;;;7.15;2.90;;;665.60;1305.60;;;;;;5046914;28;20509;-72
2021/05/12 09:17:52;;;;;;;8.13;3.08;;;665.70;1305.60;;;;;;5050944;28;20036;-70
2021/05/12 09:20:21;;;;;;;6.73;2.87;;;666.20;1280.00;;;;;;5050795;28;20116;-65
2021/05/12 09:22:50;;;;;;;7.93;2.90;;;691.30;1280.00;;;;;;5033991;28;20286;-65
2021/05/12 09:25:19;;;;;;;6.78;2.80;;;691.70;1228.80;;;;;;5033713;28;20075;-66
2021/05/12 09:27:51;;;;;;;6.10;2.70;;;691.90;1228.80;;;;;;5034030;28;20136;-66
2021/05/12 09:30:23;;;;;;;5.40;2.78;;;691.90;1254.40;;;;;;5033523;28;20033;-66
2021/05/12 09:32:49;;;;;;;4.95;2.90;;;692.10;1203.20;;;;;;5033230;28;20022;-67
2021/05/12 09:35:16;;;;;;;6.00;2.90;;;691.90;1228.80;;;;;;5033816;28;20033;-71
2021/05/12 09:37:45;;;;;;;4.15;2.88;;;691.40;1254.40;;;;;;5033375;28;20099;-72
2021/05/12 09:40:17;;;;;;;4.65;2.70;;;691.70;1254.40;;;;;;5033129;28;20472;-72
2021/05/12 09:42:44;;;;;;;6.10;3.30;;;691.90;1228.80;;;;;;5033385;28;20026;-72
2021/05/12 09:45:21;;;;;;;4.72;2.78;;;716.90;1254.40;;;;;;5033365;28;20096;-73
2021/05/12 09:48:07;;;;;;;5.72;3.00;;;716.90;1254.40;;;;;;5033348;28;20104;-67
2021/05/12 09:50:36;;;;;;;4.80;2.72;;;717.10;1280.00;;;;;;5033020;28;20396;-67
2021/05/12 09:53:14;;;;;;;5.18;2.88;;;717.00;1254.40;;;;;;5033237;28;20079;-71
2021/05/12 09:55:47;;;;;;;5.43;2.90;;;717.10;1254.40;;;;;;5033218;28;20087;-66
2021/05/12 09:58:23;;;;;;;5.22;2.70;;;717.70;1254.40;;;;;;5047094;28;20418;-66
2021/05/12 10:00:51;;;;;;;5.18;2.92;;;717.70;1228.80;;;;;;5053791;28;20446;-65
2021/05/12 10:03:23;;;;;;;6.38;2.97;;;717.60;1254.40;;;;;;5053750;28;20032;-65
2021/05/12 10:06:02;;;;;;;6.03;2.90;;;717.70;1228.80;;;;;;5054262;28;20025;-66
2021/05/12 10:08:30;;;;;;;4.63;2.70;;;717.70;1228.80;;;;;;5053915;28;20111;-66
2021/05/12 10:11:01;;;;;;;5.13;2.90;;;717.20;1254.40;;;;;;5053766;28;20067;-67
2021/05/12 10:13:28;;;;;;;4.68;3.08;;;716.80;1254.40;;;;;;5054213;28;20135;-67
2021/05/12 10:15:54;;;;;;;4.50;2.95;;;716.90;1280.00;;;;;;5053811;28;20049;-65
2021/05/12 10:18:20;;;;;;;4.00;2.70;;;691.70;1280.00;;;;;;5053340;28;20059;-66
2021/05/12 10:20:46;;;;;;;6.03;2.60;;;691.60;1280.00;;;;;;5053370;28;20032;-67
2021/05/12 10:23:11;;;;;;;4.32;2.88;;;691.70;1280.00;;;;;;5053108;28;20021;-65
2021/05/12 10:25:38;;;;;;;5.15;2.80;;;691.90;1280.00;;;;;;5053315;28;20471;-66
2021/05/12 10:28:06;;;;;;;4.43;2.92;;;717.10;1305.60;;;;;;5045389;28;20021;-67
2021/05/12 10:30:31;;;;;;;6.82;2.88;;;717.20;1254.40;;;;;;5047601;28;20029;-72
2021/05/12 10:32:59;;;;;;;5.13;3.03;;;717.70;1254.40;;;;;;5038460;28;20028;-71
2021/05/12 10:35:35;;;;;;;7.10;2.85;;;717.70;1254.40;;;;;;5052547;28;20074;-72
2021/05/12 10:38:03;;;;;;;5.43;2.80;;;742.50;1254.40;;;;;;5052140;28;20021;-73
2021/05/12 10:40:38;;;;;;;4.28;2.90;;;717.70;1228.80;;;;;;5052321;28;20037;-66
2021/05/12 10:43:10;;;;;;;5.30;2.90;;;742.90;1254.40;;;;;;5052181;28;20063;-66
2021/05/12 10:45:39;;;;;;;5.20;3.10;;;743.00;1254.40;;;;;;5052576;28;20036;-66
2021/05/12 10:48:06;;;;;;;4.82;3.00;;;742.80;1254.40;;;;;;5052476;28;20458;-66
2021/05/12 10:50:47;;;;;;;6.38;3.00;;;742.80;1228.80;;;;;;5052398;28;20029;-66
2021/05/12 10:53:24;;;;;;;5.47;2.92;;;743.00;1203.20;;;;;;5051981;28;20017;-67
2021/05/12 10:55:56;;;;;;;5.78;2.80;;;743.10;1203.20;;;;;;5050935;28;20389;-69
2021/05/12 10:58:26;;;;;;;5.03;2.97;;;742.80;1228.80;;;;;;5051969;28;20453;-67
2021/05/12 11:01:02;;;;;;;6.15;2.90;;;742.50;1254.40;;;;;;5052206;28;20021;-66
2021/05/12 11:03:52;;;;;;;6.38;3.00;;;717.50;1254.40;;;;;;5051995;28;20483;-67
2021/05/12 11:06:18;;;;;;;;;;;716.90;1280.00;;;;;;5052559;28;20480;-71
2021/05/12 11:09:05;;;;;;;5.60;2.80;;;691.90;1254.40;;;;;;5051192;28;20383;-72
2021/05/12 11:11:32;;;;;;;5.70;2.90;;;691.80;1280.00;;;;;;5052414;28;20037;-72
2021/05/12 11:14:27;;;;;;;5.82;2.88;;;692.00;1280.00;;;;;;5051740;28;20360;-73
2021/05/12 11:17:19;;;;;;;5.28;2.80;;;691.90;1280.00;;;;;;5052263;28;20444;-72
2021/05/12 11:19:49;;;;;;;5.80;3.70;;;692.10;1254.40;;;;;;5031282;28;20029;-67
2021/05/12 11:25:22;;;;;;;5.68;2.88;;;717.00;1254.40;;;;;;5052010;28;19912;-72
2021/05/12 11:28:15;;;;;;;5.97;3.10;;;692.10;1254.40;;;;;;5056722;28;20017;-76
2021/05/12 11:33:32;;;;;;;6.07;3.28;;;691.90;1280.00;;;;;;5052177;28;20067;-79
2021/05/12 11:36:15;;;;;;;5.70;3.30;;;692.00;1280.00;;;;;;5051690;28;20356;-78
2021/05/12 11:38:41;;;;;;;8.80;3.67;;;691.80;1280.00;;;;;;5050611;28;20483;-67
2021/05/12 11:41:15;;;;;;;11.23;5.70;;;691.90;1280.00;;;;;;5051382;28;20055;-68
2021/05/12 11:43:54;;;;;;;10.05;5.15;;;691.80;1280.00;;;;;;5051860;28;20513;-67
2021/05/12 11:46:37;;;;;;;4.72;3.45;;;691.90;1280.00;;;;;;5051974;28;20067;-67
2021/05/12 11:49:05;;;;;;;5.13;2.80;;;691.80;1280.00;;;;;;5051765;28;20079;-67
2021/05/12 11:51:41;;;;;;;4.95;2.97;;;691.60;1305.60;;;;;;5037976;28;20021;-76
2021/05/12 11:54:16;;;;;;;5.60;2.85;;;691.60;1280.00;;;;;;5051629;28;20087;-75
2021/05/12 11:56:44;;;;;;;4.70;2.75;;;691.20;1305.60;;;;;;5051724;28;20029;-70
2021/05/12 11:59:12;;;;;;;8.35;3.10;;;666.50;1331.20;;;;;;5051619;28;20112;-77
2021/05/12 12:01:43;;;;;;;6.68;3.25;;;666.50;1331.20;;;;;;5051470;28;20036;-77
2021/05/12 12:07:08;;;;;;;6.82;3.28;;;691.30;1331.20;;;;;;5050097;28;20031;-78
2021/05/12 12:09:34;;;;;;;5.88;3.13;;;691.50;1331.20;;;;;;5051681;28;20021;-77
2021/05/12 12:12:00;;;;;;;6.45;3.70;;;691.50;1331.20;;;;;;5051368;28;20505;-77
2021/05/12 12:14:34;;;;;;;7.07;3.28;;;691.60;1305.60;;;;;;5051699;28;20044;-76
2021/05/12 12:17:07;;;;;;;6.25;3.05;;;691.60;1305.60;;;;;;5051097;28;20033;-66
2021/05/12 12:19:33;;;;;;;5.35;2.95;;;691.60;1331.20;;;;;;5051883;28;20023;-66
2021/05/12 12:21:59;;;;;;;5.53;3.30;;;691.60;1305.60;;;;;;5055382;28;20096;-66
2021/05/12 12:24:28;;;;;;;5.72;3.17;;;691.60;1305.60;;;;;;5055256;28;20045;-66
2021/05/12 12:26:59;;;;;;;6.22;3.28;;;691.50;1305.60;;;;;;5054906;28;20055;-67
2021/05/12 12:29:29;;;;;;;7.47;3.70;;;691.60;1305.60;;;;;;5054781;28;20494;-67